Time;durP1;ratioP1;P1;durP2;ratioP2;P2;SDS_P1;SDS_P2;PMS_P1;PMS_P2;Temp;Humidity;BMP_temperature;BMP_pressure;BME280_temperature;BME280_humidity;BME280_pressure;Samples;Min_cycle;Max_cycle;Signal;HPM_P1;HPM_P2
2021/10/31 00:00:06;;;;;;;11.70;8.10;;;;;;;7.63;100.00;95847.78;5349845;55;20295;-71
2021/10/31 00:05:10;;;;;;;10.00;7.82;;;;;;;7.59;100.00;95846.38;5348136;55;20113;-71
2021/10/31 00:10:12;;;;;;;11.88;8.32;;;;;;;7.38;100.00;95858.22;5350462;55;20121;-72
2021/10/31 00:15:15;;;;;;;10.77;7.78;;;;;;;7.34;100.00;95863.09;5350289;55;20138;-72
2021/10/31 00:20:18;;;;;;;11.52;7.78;;;;;;;7.39;100.00;95873.50;5350446;55;20129;-72
2021/10/31 00:25:20;;;;;;;11.43;7.45;;;;;;;7.18;100.00;95894.31;5350476;55;20108;-72
2021/10/31 00:30:22;;;;;;;10.48;7.53;;;;;;;6.95;100.00;95901.06;5350775;55;20112;-71
2021/10/31 00:35:25;;;;;;;13.00;8.95;;;;;;;7.00;100.00;95911.47;5349482;55;20638;-72
2021/10/31 00:40:27;;;;;;;12.05;8.20;;;;;;;7.02;100.00;95909.03;5349362;55;20132;-72
2021/10/31 00:45:30;;;;;;;11.55;8.65;;;;;;;7.18;100.00;95910.78;5349001;55;20179;-71
2021/10/31 00:50:33;;;;;;;11.50;8.38;;;;;;;7.29;100.00;95904.88;5349007;55;20126;-72
2021/10/31 00:55:38;;;;;;;11.90;8.45;;;;;;;7.29;100.00;95916.66;5348338;55;20108;-72
2021/10/31 01:00:40;;;;;;;15.27;8.50;;;;;;;7.34;100.00;95907.06;5348636;55;20688;-72
2021/10/31 01:05:57;;;;;;;12.68;8.93;;;;;;;7.30;100.00;95904.47;5348486;55;20112;-72
2021/10/31 01:11:21;;;;;;;11.57;8.10;;;;;;;7.19;100.00;95901.34;5344875;55;20121;-72
2021/10/31 01:16:58;;;;;;;11.75;7.90;;;;;;;7.13;100.00;95903.91;5346700;55;20134;-72
2021/10/31 01:22:09;;;;;;;11.68;8.00;;;;;;;7.10;100.00;95899.28;5348752;55;20968;-72
2021/10/31 01:27:19;;;;;;;11.18;8.07;;;;;;;7.10;100.00;95891.06;5348313;55;20130;-72
2021/10/31 01:32:41;;;;;;;12.63;8.57;;;;;;;7.14;100.00;95888.97;5348497;55;20125;-72
2021/10/31 01:37:55;;;;;;;9.85;8.02;;;;;;;7.08;100.00;95896.22;5335776;55;20869;-71
2021/10/31 01:43:13;;;;;;;10.90;7.82;;;;;;;7.18;100.00;95894.31;5348170;55;20160;-73
2021/10/31 01:48:25;;;;;;;11.48;7.97;;;;;;;7.15;100.00;95908.94;5348013;55;20121;-72
2021/10/31 01:53:31;;;;;;;10.77;7.68;;;;;;;7.08;100.00;95898.97;5348167;55;20648;-72
2021/10/31 01:58:38;;;;;;;12.23;7.72;;;;;;;7.03;100.00;95891.31;5347842;55;20674;-72
2021/10/31 02:03:41;;;;;;;11.68;7.85;;;;;;;7.07;100.00;95913.19;5348170;55;20129;-72
2021/10/31 02:08:46;;;;;;;11.68;7.90;;;;;;;7.20;100.00;95913.84;5347716;55;20169;-72
2021/10/31 02:13:52;;;;;;;11.60;8.80;;;;;;;7.05;100.00;95891.66;5348112;55;20112;-72
2021/10/31 02:19:02;;;;;;;15.13;8.30;;;;;;;7.18;100.00;95906.06;5347610;55;20108;-72
2021/10/31 02:24:07;;;;;;;10.77;7.72;;;;;;;7.09;100.00;95900.53;5348760;55;20120;-72
2021/10/31 02:29:10;;;;;;;10.25;7.57;;;;;;;6.88;100.00;95893.06;5347554;55;20643;-72
2021/10/31 02:34:13;;;;;;;10.23;7.35;;;;;;;6.77;100.00;95889.19;5347647;55;20112;-71
2021/10/31 02:39:15;;;;;;;10.20;7.00;;;;;;;6.64;100.00;95899.47;5344853;55;20598;-71
2021/10/31 02:44:17;;;;;;;9.93;7.15;;;;;;;6.53;100.00;95900.59;5350917;55;20148;-71
2021/10/31 02:49:20;;;;;;;11.38;7.57;;;;;;;6.40;100.00;95890.91;5350730;55;20122;-72
2021/10/31 02:54:41;;;;;;;10.27;7.32;;;;;;;6.40;100.00;95891.66;5350738;55;20121;-72
2021/10/31 02:59:48;;;;;;;8.43;6.85;;;;;;;6.36;100.00;95892.97;5350806;55;20612;-72
2021/10/31 03:04:52;;;;;;;8.93;6.60;;;;;;;6.39;100.00;95881.91;5350581;55;20577;-72
2021/10/31 03:09:54;;;;;;;10.65;7.45;;;;;;;6.45;100.00;95904.03;5350475;55;20131;-73
2021/10/31 03:14:57;;;;;;;9.98;6.82;;;;;;;6.49;100.00;95908.19;5350794;55;20130;-71
2021/10/31 03:19:59;;;;;;;11.73;7.32;;;;;;;6.48;100.00;95906.69;5350930;55;20585;-72
2021/10/31 03:25:02;;;;;;;9.38;6.60;;;;;;;6.56;100.00;95920.91;5349874;55;20139;-72
2021/10/31 03:30:05;;;;;;;10.20;6.95;;;;;;;6.36;100.00;95918.44;5350048;55;20152;-72
2021/10/31 03:35:07;;;;;;;11.02;7.13;;;;;;;6.25;100.00;95922.75;5349980;55;20588;-71
2021/10/31 03:40:10;;;;;;;11.60;7.53;;;;;;;6.24;100.00;95918.50;5350185;55;20126;-71
2021/10/31 03:45:13;;;;;;;8.18;6.32;;;;;;;6.12;100.00;95920.06;5350010;55;20122;-72
2021/10/31 03:50:18;;;;;;;9.98;6.93;;;;;;;6.01;100.00;95907.91;5349646;55;20195;-73
2021/10/31 03:55:21;;;;;;;10.27;6.20;;;;;;;5.98;100.00;95901.34;5349915;55;20113;-72
2021/10/31 04:00:23;;;;;;;10.05;6.95;;;;;;;5.94;100.00;95891.69;5350105;55;20216;-72
2021/10/31 04:05:26;;;;;;;9.27;6.88;;;;;;;5.88;100.00;95901.69;5349761;55;20131;-72
2021/10/31 04:10:29;;;;;;;8.52;6.32;;;;;;;5.91;100.00;95892.56;5349627;55;20112;-71
2021/10/31 04:15:32;;;;;;;9.20;6.63;;;;;;;5.69;100.00;95898.72;5349577;55;20161;-72
2021/10/31 04:20:35;;;;;;;8.95;6.75;;;;;;;5.69;100.00;95882.28;5349713;55;20201;-71
2021/10/31 04:25:37;;;;;;;7.70;5.53;;;;;;;5.63;100.00;95870.31;5348619;55;20116;-71
2021/10/31 04:30:39;;;;;;;9.40;6.38;;;;;;;5.57;100.00;95874.84;5345670;55;20135;-72
2021/10/31 04:35:42;;;;;;;8.73;5.63;;;;;;;5.48;100.00;95869.25;5346161;55;20643;-71
2021/10/31 04:40:44;;;;;;;7.88;6.22;;;;;;;5.46;100.00;95873.63;5349065;55;20125;-72
2021/10/31 04:45:47;;;;;;;7.15;5.65;;;;;;;5.37;100.00;95868.81;5348893;55;20155;-72
2021/10/31 04:50:54;;;;;;;6.75;5.53;;;;;;;5.31;100.00;95864.34;5349060;55;20117;-72
2021/10/31 04:55:56;;;;;;;9.55;6.40;;;;;;;5.16;100.00;95860.50;5349134;55;20573;-72
2021/10/31 05:00:59;;;;;;;8.88;6.15;;;;;;;5.18;100.00;95853.38;5349158;55;20117;-71
2021/10/31 05:06:02;;;;;;;7.47;5.57;;;;;;;5.23;100.00;95847.34;5345819;55;20674;-72
2021/10/31 05:11:05;;;;;;;9.68;7.18;;;;;;;5.33;100.00;95848.22;5347372;55;20117;-71
2021/10/31 05:16:08;;;;;;;8.98;6.15;;;;;;;5.26;100.00;95843.75;5348730;55;20109;-71
2021/10/31 05:21:11;;;;;;;6.88;5.30;;;;;;;5.23;100.00;95847.34;5348584;55;20579;-72
2021/10/31 05:26:13;;;;;;;10.27;5.68;;;;;;;5.20;100.00;95844.72;5348330;55;20588;-71
2021/10/31 05:31:16;;;;;;;6.65;5.03;;;;;;;5.05;100.00;95836.16;5349126;55;20126;-72
2021/10/31 05:36:19;;;;;;;6.78;5.30;;;;;;;4.96;100.00;95830.59;5348721;55;20108;-72
2021/10/31 05:41:22;;;;;;;6.75;5.07;;;;;;;4.99;100.00;95829.72;5348382;55;20656;-72
2021/10/31 05:46:24;;;;;;;6.30;5.05;;;;;;;4.93;100.00;95826.00;5347980;55;20108;-71
2021/10/31 05:51:30;;;;;;;7.25;5.25;;;;;;;4.89;100.00;95825.31;5348190;55;20113;-71
2021/10/31 05:56:33;;;;;;;5.97;4.63;;;;;;;4.86;100.00;95823.47;5348325;55;20126;-71
2021/10/31 06:01:36;;;;;;;5.75;4.35;;;;;;;4.77;100.00;95824.09;5348121;55;20129;-72
2021/10/31 06:06:39;;;;;;;4.15;3.75;;;;;;;4.95;100.00;95831.81;5348259;55;20117;-71
2021/10/31 06:11:41;;;;;;;5.80;4.68;;;;;;;4.61;100.00;95828.91;5347841;55;20135;-71
2021/10/31 06:16:44;;;;;;;7.30;5.07;;;;;;;4.69;100.00;95825.53;5347854;55;20121;-71
2021/10/31 06:21:46;;;;;;;6.70;5.15;;;;;;;4.83;100.00;95832.56;5347798;55;20112;-71
2021/10/31 06:26:48;;;;;;;7.80;5.80;;;;;;;4.93;100.00;95815.78;5347565;55;20121;-70
2021/10/31 06:31:51;;;;;;;8.68;5.43;;;;;;;5.06;100.00;95822.06;5345895;55;20671;-70
2021/10/31 06:36:53;;;;;;;6.93;4.68;;;;;;;5.22;100.00;95818.44;5351645;55;20134;-71
2021/10/31 06:41:56;;;;;;;7.30;5.57;;;;;;;5.39;100.00;95819.84;5347708;55;20130;-70
2021/10/31 06:46:58;;;;;;;6.40;4.70;;;;;;;5.44;100.00;95822.03;5347343;55;20117;-70
2021/10/31 06:52:01;;;;;;;8.93;5.57;;;;;;;5.59;100.00;95830.53;5347616;55;20697;-70
2021/10/31 06:57:04;;;;;;;5.78;4.60;;;;;;;5.88;100.00;95813.97;5347224;55;20126;-70
2021/10/31 07:02:07;;;;;;;5.45;4.18;;;;;;;5.98;100.00;95823.78;5347438;55;20139;-69
2021/10/31 07:07:09;;;;;;;4.57;4.07;;;;;;;6.20;100.00;95821.81;5347382;55;20213;-69
2021/10/31 07:12:12;;;;;;;6.53;5.13;;;;;;;6.45;100.00;95821.72;5347958;55;20104;-71
2021/10/31 07:17:14;;;;;;;6.53;5.15;;;;;;;6.63;100.00;95816.34;5347084;55;20575;-70
2021/10/31 07:22:18;;;;;;;6.07;4.55;;;;;;;6.91;100.00;95807.03;5347384;55;20135;-70
2021/10/31 07:27:21;;;;;;;5.57;4.57;;;;;;;7.26;100.00;95817.88;5349040;55;20124;-71
2021/10/31 07:32:23;;;;;;;4.85;4.05;;;;;;;7.46;98.80;95810.78;5350972;55;20580;-70
2021/10/31 07:37:29;;;;;;;5.10;4.20;;;;;;;7.80;97.29;95804.28;5350753;55;20113;-70
2021/10/31 07:42:32;;;;;;;6.50;4.22;;;;;;;8.13;95.92;95802.44;5350660;55;20113;-70
2021/10/31 07:47:34;;;;;;;6.25;4.13;;;;;;;8.39;94.70;95805.69;5350445;55;20112;-71
2021/10/31 07:52:43;;;;;;;6.50;3.65;;;;;;;8.57;94.46;95803.66;5351095;55;20117;-67
2021/10/31 07:57:47;;;;;;;6.20;4.05;;;;;;;8.84;92.99;95805.63;5350490;55;20112;-71
2021/10/31 08:02:57;;;;;;;4.38;3.95;;;;;;;8.96;90.86;95801.13;5350917;55;20784;-70
2021/10/31 08:07:59;;;;;;;4.97;3.70;;;;;;;9.17;89.98;95800.91;5350449;55;20113;-70
2021/10/31 08:13:02;;;;;;;4.68;3.88;;;;;;;9.39;88.78;95789.63;5350352;55;20113;-70
2021/10/31 08:18:04;;;;;;;4.05;3.50;;;;;;;9.69;89.15;95785.78;5350322;55;20235;-70
2021/10/31 08:23:07;;;;;;;5.28;3.78;;;;;;;9.95;88.38;95775.78;5350573;55;20126;-70
2021/10/31 08:28:11;;;;;;;5.22;3.90;;;;;;;10.17;87.23;95767.22;5352242;55;20122;-69
2021/10/31 08:33:23;;;;;;;3.90;3.50;;;;;;;10.74;86.11;95759.47;5350331;55;20116;-71
2021/10/31 08:38:26;;;;;;;4.43;3.83;;;;;;;11.16;80.20;95759.91;5347213;55;20129;-69
2021/10/31 08:43:29;;;;;;;4.20;3.28;;;;;;;11.53;80.82;95755.41;5359094;55;20121;-70
2021/10/31 08:48:34;;;;;;;4.40;3.30;;;;;;;11.93;76.34;95737.34;5351426;55;20131;-70
2021/10/31 08:53:37;;;;;;;3.30;2.75;;;;;;;12.22;74.80;95734.41;5349003;55;20121;-69
2021/10/31 08:58:43;;;;;;;3.78;3.10;;;;;;;12.45;73.54;95727.88;5348596;55;20130;-70
2021/10/31 09:03:47;;;;;;;3.20;2.83;;;;;;;12.94;74.46;95712.91;5339475;55;20112;-69
2021/10/31 09:08:49;;;;;;;4.38;2.67;;;;;;;13.23;74.78;95703.59;5348582;55;20113;-70
2021/10/31 09:13:52;;;;;;;3.03;2.72;;;;;;;13.71;72.50;95698.03;5348573;55;20594;-70
2021/10/31 09:18:54;;;;;;;5.63;2.90;;;;;;;14.26;68.58;95687.91;5348400;55;20204;-71
2021/10/31 09:23:57;;;;;;;4.00;3.50;;;;;;;14.76;67.68;95684.47;5348529;55;20130;-70
2021/10/31 09:28:59;;;;;;;2.95;2.63;;;;;;;15.29;65.36;95672.28;5348348;55;20121;-71
2021/10/31 09:34:02;;;;;;;2.38;2.22;;;;;;;15.73;64.18;95669.41;5347235;55;20134;-71
2021/10/31 09:39:06;;;;;;;2.55;2.35;;;;;;;16.02;61.84;95662.44;5342881;55;20140;-70
2021/10/31 09:44:25;;;;;;;2.60;2.40;;;;;;;16.58;61.61;95651.75;5341810;55;20159;-70
2021/10/31 09:49:28;;;;;;;;;;;;;;;16.69;61.05;95648.88;5338614;55;20196;-69
2021/10/31 09:54:32;;;;;;;5.70;2.00;;;;;;;16.96;56.34;95629.09;5344613;55;19979;-71
2021/10/31 09:59:40;;;;;;;2.33;2.10;;;;;;;16.98;56.75;95623.03;5348077;55;20112;-70
2021/10/31 10:04:51;;;;;;;2.50;2.30;;;;;;;17.23;58.62;95622.50;5344536;55;20122;-71
2021/10/31 10:09:55;;;;;;;2.50;2.00;;;;;;;17.77;55.75;95610.50;5337327;55;20219;-70
2021/10/31 10:15:05;;;;;;;2.60;2.40;;;;;;;17.77;54.10;95604.94;5338613;55;20138;-70
2021/10/31 10:20:11;;;;;;;2.03;1.92;;;;;;;18.48;52.80;95602.41;5336156;55;20944;-70
2021/10/31 10:25:14;;;;;;;4.15;2.38;;;;;;;18.30;53.95;95595.53;5337848;55;20168;-70
2021/10/31 10:30:20;;;;;;;2.30;2.10;;;;;;;18.56;48.43;95592.91;5340135;55;20121;-70
2021/10/31 10:35:26;;;;;;;2.30;2.10;;;;;;;18.54;51.67;95581.47;5337081;55;20117;-71
2021/10/31 10:40:28;;;;;;;2.00;1.80;;;;;;;18.79;49.48;95578.53;5334290;55;20139;-70
2021/10/31 10:45:32;;;;;;;2.10;1.90;;;;;;;19.21;49.12;95560.72;5336683;55;20121;-68
2021/10/31 10:50:37;;;;;;;1.77;1.67;;;;;;;19.07;49.11;95553.59;5344380;55;20584;-71
2021/10/31 10:55:39;;;;;;;1.88;1.77;;;;;;;19.49;48.08;95546.19;5334198;55;20100;-70
2021/10/31 11:00:46;;;;;;;3.55;1.80;;;;;;;19.25;51.31;95525.47;5345783;55;20099;-71
2021/10/31 11:05:51;;;;;;;5.63;1.77;;;;;;;19.56;48.38;95514.72;5347579;55;20130;-71
2021/10/31 11:11:04;;;;;;;3.75;2.70;;;;;;;20.12;49.37;95503.78;5338627;55;20121;-71
2021/10/31 11:16:07;;;;;;;3.17;2.88;;;;;;;20.06;48.50;95485.59;5347472;55;20112;-70
2021/10/31 11:21:09;;;;;;;3.95;2.70;;;;;;;20.11;49.36;95470.66;5345429;55;20099;-71
2021/10/31 11:26:14;;;;;;;4.00;3.58;;;;;;;20.10;52.40;95452.34;5336757;55;20117;-71
2021/10/31 11:31:17;;;;;;;4.63;3.40;;;;;;;20.26;51.93;95434.38;5347627;55;20134;-71
2021/10/31 11:36:20;;;;;;;3.90;3.10;;;;;;;20.45;51.05;95440.50;5343641;55;20330;-70
2021/10/31 11:41:28;;;;;;;5.18;3.60;;;;;;;20.96;47.71;95426.66;5346989;55;20121;-71
2021/10/31 11:46:41;;;;;;;4.23;3.83;;;;;;;20.68;47.80;95430.22;5343344;55;20122;-70
2021/10/31 11:51:47;;;;;;;4.05;3.33;;;;;;;20.81;48.26;95421.69;5339554;55;20241;-71
2021/10/31 11:56:55;;;;;;;3.85;3.50;;;;;;;20.83;48.64;95413.44;5342725;55;20198;-70
2021/10/31 12:01:59;;;;;;;3.60;3.30;;;;;;;20.96;47.39;95404.94;5338888;55;20108;-70
2021/10/31 12:07:28;;;;;;;3.60;3.30;;;;;;;21.30;47.86;95399.88;5343602;55;20821;-71
2021/10/31 12:12:32;;;;;;;4.38;3.30;;;;;;;21.32;46.74;95393.72;5335979;55;20170;-71
2021/10/31 12:18:01;;;;;;;3.58;3.28;;;;;;;21.48;44.51;95369.22;5336765;55;20656;-71
2021/10/31 12:23:20;;;;;;;3.28;2.97;;;;;;;21.31;44.90;95362.03;5346257;55;20126;-70
2021/10/31 12:28:40;;;;;;;5.10;3.83;;;;;;;21.34;46.54;95354.56;5340337;55;20121;-72
2021/10/31 12:34:10;;;;;;;4.13;3.72;;;;;;;21.00;46.08;95354.78;5342233;55;20121;-71
2021/10/31 12:39:39;;;;;;;4.10;3.70;;;;;;;20.77;48.69;95331.44;5335653;55;20154;-69
2021/10/31 12:44:52;;;;;;;;;;;;;;;20.19;47.54;95329.19;5341706;55;20260;-70
2021/10/31 12:50:09;;;;;;;9.52;4.63;;;;;;;19.98;48.49;95325.66;5332916;55;20045;-68
2021/10/31 12:55:18;;;;;;;6.50;4.80;;;;;;;20.13;48.33;95319.41;5330600;55;20274;-68
2021/10/31 13:00:22;;;;;;;6.03;5.25;;;;;;;20.35;48.01;95313.25;5342835;55;20652;-69
2021/10/31 13:05:26;;;;;;;8.88;6.45;;;;;;;20.31;47.68;95301.63;5333581;55;20117;-71
2021/10/31 13:10:31;;;;;;;6.57;5.72;;;;;;;20.87;45.44;95300.78;5337508;55;20768;-72
2021/10/31 13:15:36;;;;;;;8.07;6.13;;;;;;;21.42;45.64;95296.28;5339196;55;20210;-70
2021/10/31 13:20:45;;;;;;;9.20;6.22;;;;;;;21.40;44.30;95294.06;5336682;55;20112;-70
2021/10/31 13:25:55;;;;;;;7.25;6.03;;;;;;;20.09;45.28;95290.94;5334330;55;20113;-68
2021/10/31 13:31:04;;;;;;;6.82;5.80;;;;;;;19.97;46.43;95280.03;5336392;55;20121;-69
2021/10/31 13:36:08;;;;;;;7.85;5.82;;;;;;;19.46;46.86;95275.47;5337723;55;20116;-70
2021/10/31 13:41:10;;;;;;;6.65;5.55;;;;;;;19.53;46.90;95264.34;5338345;55;20112;-67
2021/10/31 13:46:13;;;;;;;8.85;5.18;;;;;;;19.96;46.95;95266.56;5347571;55;20128;-70
2021/10/31 13:51:15;;;;;;;8.57;5.70;;;;;;;20.25;45.25;95256.88;5347038;55;20104;-69
2021/10/31 13:56:18;;;;;;;7.55;5.40;;;;;;;20.51;43.94;95248.22;5346770;55;20117;-70
2021/10/31 14:01:41;;;;;;;7.32;5.50;;;;;;;19.57;45.86;95247.19;5347529;55;20112;-69
2021/10/31 14:06:46;;;;;;;8.13;5.75;;;;;;;18.59;49.34;95249.69;5343522;55;20652;-71
2021/10/31 14:11:56;;;;;;;12.52;5.43;;;;;;;18.14;49.97;95252.63;5342243;55;20108;-71
2021/10/31 14:17:13;;;;;;;7.50;5.40;;;;;;;17.84;51.58;95246.59;5334023;55;20126;-70
2021/10/31 14:22:18;;;;;;;6.47;5.13;;;;;;;17.30;52.04;95241.41;5335161;55;20234;-70
2021/10/31 14:27:24;;;;;;;10.00;5.40;;;;;;;16.97;52.12;95250.31;5332959;55;20610;-70
2021/10/31 14:32:53;;;;;;;6.65;5.13;;;;;;;16.80;51.57;95247.75;5332736;55;20123;-70
2021/10/31 14:38:07;;;;;;;;;;;;;;;16.52;52.55;95250.19;5337722;55;20642;-69
2021/10/31 14:43:31;;;;;;;5.28;4.57;;;;;;;16.16;53.08;95244.03;5341214;55;19980;-70
2021/10/31 14:49:08;;;;;;;5.25;4.72;;;;;;;15.96;55.00;95246.56;5337400;55;20109;-70
2021/10/31 14:54:26;;;;;;;4.68;4.18;;;;;;;15.81;54.60;95246.22;5336977;55;20624;-70
2021/10/31 14:59:29;;;;;;;4.70;4.20;;;;;;;15.57;56.55;95242.16;5339460;55;20112;-68
2021/10/31 15:04:32;;;;;;;5.80;4.38;;;;;;;15.38;57.47;95246.09;5339737;55;20675;-71
2021/10/31 15:09:34;;;;;;;6.40;4.53;;;;;;;15.17;58.08;95245.00;5354809;55;20112;-70
2021/10/31 15:14:39;;;;;;;5.32;4.35;;;;;;;15.08;57.21;95246.84;5351413;55;20121;-69
2021/10/31 15:19:42;;;;;;;5.45;4.78;;;;;;;14.93;57.40;95245.69;5350124;55;20605;-70
2021/10/31 15:24:44;;;;;;;5.65;4.63;;;;;;;14.60;59.70;95246.69;5350111;55;20240;-69
2021/10/31 15:29:50;;;;;;;5.80;4.47;;;;;;;14.52;59.60;95239.41;5350910;55;20254;-71
2021/10/31 15:34:52;;;;;;;5.53;4.78;;;;;;;14.19;62.12;95232.72;5350244;55;20121;-71
2021/10/31 15:39:55;;;;;;;5.25;4.75;;;;;;;13.90;62.55;95233.34;5349898;55;20117;-69
2021/10/31 15:44:57;;;;;;;7.57;4.38;;;;;;;13.56;64.30;95229.91;5333109;55;20207;-69
2021/10/31 15:50:00;;;;;;;6.95;5.15;;;;;;;13.35;64.77;95234.22;5349536;55;20117;-69
2021/10/31 15:55:03;;;;;;;4.97;4.25;;;;;;;13.26;65.77;95242.06;5349795;55;20117;-69
2021/10/31 16:00:06;;;;;;;6.45;4.63;;;;;;;12.93;67.06;95232.44;5337237;55;20113;-70
2021/10/31 16:05:09;;;;;;;5.75;4.43;;;;;;;12.85;67.13;95228.66;5327754;55;20217;-70
2021/10/31 16:10:11;;;;;;;5.70;4.88;;;;;;;12.62;67.52;95229.91;5327678;55;20113;-70
2021/10/31 16:15:13;;;;;;;8.98;5.22;;;;;;;12.62;67.91;95229.16;5328255;55;20238;-69
2021/10/31 16:20:16;;;;;;;5.70;4.45;;;;;;;12.43;69.71;95228.88;5327829;55;20109;-70
2021/10/31 16:25:20;;;;;;;7.65;4.38;;;;;;;12.00;73.95;95224.72;5327453;55;20140;-69
2021/10/31 16:30:27;;;;;;;5.22;4.35;;;;;;;11.66;76.35;95228.56;5330978;55;20198;-70
2021/10/31 16:35:30;;;;;;;6.20;4.13;;;;;;;11.33;77.68;95221.59;5348980;55;20686;-69
2021/10/31 16:40:35;;;;;;;4.72;4.20;;;;;;;11.14;78.67;95225.25;5348877;55;20135;-69
2021/10/31 16:45:37;;;;;;;7.05;4.88;;;;;;;11.05;79.15;95225.44;5340531;55;20140;-70
2021/10/31 16:50:40;;;;;;;7.93;4.68;;;;;;;11.04;79.79;95226.66;5335117;55;20109;-71
2021/10/31 16:55:43;;;;;;;5.55;4.38;;;;;;;10.74;81.43;95224.16;5345629;55;20113;-70
2021/10/31 17:00:45;;;;;;;6.32;4.43;;;;;;;10.49;82.86;95226.97;5348311;55;20108;-71
2021/10/31 17:05:48;;;;;;;6.53;4.82;;;;;;;10.42;83.33;95228.16;5335708;55;20108;-70
2021/10/31 17:10:56;;;;;;;7.13;4.15;;;;;;;10.27;84.09;95218.47;5336759;55;20109;-70
2021/10/31 17:16:04;;;;;;;8.18;4.65;;;;;;;10.07;85.03;95219.22;5338989;55;20122;-71
2021/10/31 17:21:07;;;;;;;7.85;4.70;;;;;;;9.93;86.03;95214.53;5339617;55;20683;-72
2021/10/31 17:26:09;;;;;;;6.82;4.20;;;;;;;9.81;86.05;95207.41;5334586;55;20755;-71
2021/10/31 17:31:12;;;;;;;12.57;4.97;;;;;;;9.71;87.50;95220.56;5329184;55;20603;-71
2021/10/31 17:36:14;;;;;;;4.55;4.15;;;;;;;9.61;87.53;95216.44;5347952;55;20117;-70
2021/10/31 17:41:17;;;;;;;5.18;4.53;;;;;;;9.58;87.56;95216.63;5342029;55;20104;-70
2021/10/31 17:46:19;;;;;;;6.78;4.90;;;;;;;9.68;87.67;95213.25;5338520;55;20653;-73
2021/10/31 17:51:21;;;;;;;6.32;4.30;;;;;;;9.57;87.80;95210.34;5336498;55;20127;-71
2021/10/31 17:56:24;;;;;;;5.00;4.28;;;;;;;9.38;88.18;95198.09;5330600;55;20204;-71
2021/10/31 18:01:27;;;;;;;6.20;4.88;;;;;;;9.22;90.25;95202.16;5339836;55;20108;-71
2021/10/31 18:06:30;;;;;;;9.18;5.75;;;;;;;9.15;91.28;95202.53;5333381;55;20221;-70
2021/10/31 18:11:32;;;;;;;7.78;5.10;;;;;;;9.23;91.15;95192.63;5336172;55;20114;-70
2021/10/31 18:16:34;;;;;;;14.57;6.80;;;;;;;9.24;91.87;95180.38;5335942;55;20117;-71
2021/10/31 18:21:37;;;;;;;10.02;6.97;;;;;;;9.27;92.08;95184.91;5345789;55;20102;-71
2021/10/31 18:26:39;;;;;;;10.32;7.43;;;;;;;9.23;92.05;95178.84;5347365;55;20112;-72
2021/10/31 18:31:42;;;;;;;11.98;6.40;;;;;;;9.19;91.76;95159.00;5343166;55;20197;-70
2021/10/31 18:36:48;;;;;;;11.30;6.70;;;;;;;9.08;92.04;95158.09;5343218;55;20634;-71
2021/10/31 18:41:54;;;;;;;9.30;6.38;;;;;;;8.88;92.22;95160.81;5307051;55;20118;-71
2021/10/31 18:46:57;;;;;;;9.80;6.70;;;;;;;8.75;92.13;95146.59;5324530;55;20637;-71
2021/10/31 18:52:00;;;;;;;7.25;5.93;;;;;;;8.66;91.44;95139.97;5316891;55;20648;-70
2021/10/31 18:57:03;;;;;;;6.50;4.95;;;;;;;8.73;90.61;95138.06;5332295;55;20704;-72
2021/10/31 19:02:05;;;;;;;6.65;5.05;;;;;;;8.48;92.28;95140.19;5344645;55;20117;-73
2021/10/31 19:07:08;;;;;;;6.57;5.00;;;;;;;8.32;93.67;95137.19;5346889;55;20135;-72
2021/10/31 19:12:11;;;;;;;12.70;6.40;;;;;;;8.32;94.79;95131.69;5343475;55;20144;-73
2021/10/31 19:17:13;;;;;;;10.45;6.28;;;;;;;8.29;94.70;95130.63;5345903;55;20112;-70
2021/10/31 19:22:16;;;;;;;13.68;7.25;;;;;;;8.31;96.30;95133.66;5347687;55;20112;-70
2021/10/31 19:27:19;;;;;;;9.18;6.45;;;;;;;8.36;96.25;95130.25;5349453;55;20678;-71
2021/10/31 19:32:21;;;;;;;12.20;8.50;;;;;;;8.33;97.57;95119.41;5348156;55;20585;-72
2021/10/31 19:37:24;;;;;;;13.05;7.80;;;;;;;8.28;96.81;95107.09;5334793;55;20117;-72
2021/10/31 19:42:27;;;;;;;13.48;7.28;;;;;;;8.17;96.37;95103.38;5338863;55;20227;-70
2021/10/31 19:47:29;;;;;;;8.88;6.28;;;;;;;8.09;95.21;95110.50;5336207;55;20134;-72
2021/10/31 19:52:31;;;;;;;8.88;5.78;;;;;;;7.97;95.13;95112.31;5330738;55;20118;-71
2021/10/31 19:57:34;;;;;;;12.98;6.55;;;;;;;7.93;95.45;95109.75;5326058;55;20176;-71
2021/10/31 20:02:37;;;;;;;9.00;6.55;;;;;;;7.87;98.10;95113.63;5338211;55;20104;-71
2021/10/31 20:07:40;;;;;;;11.07;6.97;;;;;;;7.89;98.47;95113.94;5336223;55;20577;-71
2021/10/31 20:12:43;;;;;;;9.00;6.60;;;;;;;7.99;98.69;95112.59;5333891;55;20165;-70
2021/10/31 20:17:45;;;;;;;9.73;6.47;;;;;;;7.92;97.81;95108.22;5345423;55;20152;-70
2021/10/31 20:22:48;;;;;;;9.20;5.80;;;;;;;7.82;95.73;95111.56;5346405;55;20648;-71
2021/10/31 20:27:55;;;;;;;9.70;6.40;;;;;;;7.63;95.88;95110.19;5339246;55;20689;-71
2021/10/31 20:32:58;;;;;;;8.18;5.90;;;;;;;7.48;96.08;95118.44;5327467;55;20144;-71
2021/10/31 20:38:01;;;;;;;6.78;5.38;;;;;;;7.39;95.80;95112.25;5327371;55;20599;-69
2021/10/31 20:43:04;;;;;;;6.07;4.93;;;;;;;7.27;95.94;95110.50;5327888;55;20118;-70
2021/10/31 20:48:06;;;;;;;5.70;5.05;;;;;;;7.22;96.58;95112.69;5327737;55;20127;-70
2021/10/31 20:53:09;;;;;;;7.93;5.70;;;;;;;7.23;97.06;95116.19;5318588;55;20100;-71
2021/10/31 20:58:22;;;;;;;8.68;5.65;;;;;;;7.11;97.97;95126.19;5327385;55;20132;-68
2021/10/31 21:03:26;;;;;;;5.90;4.80;;;;;;;7.08;97.44;95127.13;5327713;55;20140;-72
2021/10/31 21:08:29;;;;;;;8.35;4.82;;;;;;;7.00;97.11;95125.19;5327461;55;20126;-70
2021/10/31 21:13:32;;;;;;;6.55;5.22;;;;;;;6.88;97.67;95123.44;5327414;55;20599;-70
2021/10/31 21:18:34;;;;;;;7.55;5.40;;;;;;;6.89;97.88;95114.75;5327150;55;20117;-71
2021/10/31 21:23:44;;;;;;;9.93;6.57;;;;;;;6.83;98.60;95129.59;5327269;55;20683;-71
2021/10/31 21:28:47;;;;;;;9.48;5.88;;;;;;;6.74;98.99;95143.34;5334904;55;20117;-72
2021/10/31 21:33:50;;;;;;;11.43;6.68;;;;;;;6.84;99.60;95156.56;5343190;55;20114;-71
2021/10/31 21:38:58;;;;;;;8.70;6.25;;;;;;;6.84;99.34;95161.28;5327640;55;20100;-70
2021/10/31 21:44:01;;;;;;;8.85;6.32;;;;;;;6.80;99.56;95155.22;5332038;55;20820;-71
2021/10/31 21:49:05;;;;;;;8.57;6.25;;;;;;;6.84;99.84;95159.31;5327076;55;20923;-70
2021/10/31 21:54:07;;;;;;;8.63;6.32;;;;;;;6.81;98.75;95153.97;5327061;55;20117;-70
2021/10/31 21:59:10;;;;;;;11.15;6.85;;;;;;;6.73;98.09;95141.81;5326918;55;20641;-71
2021/10/31 22:04:13;;;;;;;8.10;5.88;;;;;;;6.58;98.55;95151.97;5327404;55;20175;-71
2021/10/31 22:09:15;;;;;;;6.50;5.53;;;;;;;6.53;98.71;95147.88;5326871;55;20126;-70
2021/10/31 22:14:18;;;;;;;6.60;5.22;;;;;;;6.43;98.89;95132.66;5326964;55;20117;-71
2021/10/31 22:19:20;;;;;;;9.73;6.50;;;;;;;6.43;99.41;95129.91;5326241;55;20122;-71
2021/10/31 22:24:23;;;;;;;12.15;7.00;;;;;;;6.60;99.02;95122.06;5327032;55;20122;-72
2021/10/31 22:29:26;;;;;;;8.85;5.95;;;;;;;6.44;98.66;95123.22;5326794;55;20122;-72
2021/10/31 22:34:28;;;;;;;9.18;6.32;;;;;;;6.27;98.12;95119.31;5326638;55;20113;-71
2021/10/31 22:39:30;;;;;;;6.85;5.85;;;;;;;6.18;97.99;95109.16;5330735;55;20130;-71
2021/10/31 22:44:33;;;;;;;10.23;6.18;;;;;;;6.15;98.58;95114.81;5339926;55;20666;-71
2021/10/31 22:49:36;;;;;;;8.80;6.10;;;;;;;6.06;98.81;95098.38;5347495;55;20585;-73
2021/10/31 22:54:44;;;;;;;8.88;6.10;;;;;;;6.07;99.42;95113.59;5347635;55;20193;-71
2021/10/31 22:59:46;;;;;;;10.18;6.72;;;;;;;6.14;99.81;95107.78;5351737;55;20135;-71
2021/10/31 23:04:49;;;;;;;11.02;6.90;;;;;;;6.07;100.00;95111.63;5351563;55;20589;-72
2021/10/31 23:09:51;;;;;;;10.18;6.82;;;;;;;6.08;100.00;95101.41;5351626;55;20126;-72
2021/10/31 23:14:54;;;;;;;9.88;6.88;;;;;;;6.06;100.00;95088.16;5351704;55;20242;-71
2021/10/31 23:19:56;;;;;;;9.88;7.28;;;;;;;6.09;100.00;95097.44;5341951;55;20701;-72
2021/10/31 23:24:59;;;;;;;10.95;7.47;;;;;;;6.07;99.91;95089.69;5350933;55;20112;-71
2021/10/31 23:30:03;;;;;;;9.10;6.72;;;;;;;6.01;99.47;95083.31;5350629;55;20121;-71
2021/10/31 23:35:06;;;;;;;10.32;7.82;;;;;;;5.93;99.30;95089.56;5341657;55;20541;-71
2021/10/31 23:40:09;;;;;;;11.70;8.05;;;;;;;5.92;99.23;95088.81;5350934;55;20103;-72
2021/10/31 23:45:11;;;;;;;10.32;7.10;;;;;;;5.82;99.67;95085.31;5350856;55;20589;-71
2021/10/31 23:50:14;;;;;;;11.55;7.53;;;;;;;5.80;100.00;95104.22;5351031;55;20131;-72
2021/10/31 23:55:17;;;;;;;12.57;7.95;;;;;;;5.82;100.00;95098.25;5351063;55;20126;-71
